sensor_id;sensor_type;location;lat;lon;timestamp;pressure;altitude;pressure_sealevel;temperature;humidity
8366;BME280;4220;42.502;24.188;2023-08-12T00:01:20;95771.34;;;18.17;100.00
8366;BME280;4220;42.502;24.188;2023-08-12T00:03:47;95756.13;;;17.79;100.00
8366;BME280;4220;42.502;24.188;2023-08-12T00:06:14;95754.84;;;17.43;100.00
8366;BME280;4220;42.502;24.188;2023-08-12T00:08:41;95765.75;;;17.37;100.00
8366;BME280;4220;42.502;24.188;2023-08-12T00:11:08;95767.06;;;17.34;100.00
8366;BME280;4220;42.502;24.188;2023-08-12T00:13:34;95749.28;;;17.28;100.00
8366;BME280;4220;42.502;24.188;2023-08-12T00:16:01;95763.72;;;17.27;100.00
8366;BME280;4220;42.502;24.188;2023-08-12T00:18:29;95760.84;;;16.79;100.00
8366;BME280;4220;42.502;24.188;2023-08-12T00:21:05;95762.75;;;16.50;100.00
8366;BME280;4220;42.502;24.188;2023-08-12T00:23:32;95715.63;;;16.04;100.00
8366;BME280;4220;42.502;24.188;2023-08-12T00:25:59;95747.75;;;16.04;100.00
8366;BME280;4220;42.502;24.188;2023-08-12T00:28:26;95733.88;;;16.07;100.00
8366;BME280;4220;42.502;24.188;2023-08-12T00:30:53;95756.28;;;16.18;100.00
8366;BME280;4220;42.502;24.188;2023-08-12T00:33:20;95755.94;;;16.14;100.00
8366;BME280;4220;42.502;24.188;2023-08-12T00:35:48;95751.38;;;16.26;100.00
8366;BME280;4220;42.502;24.188;2023-08-12T00:38:15;95754.28;;;16.42;100.00
8366;BME280;4220;42.502;24.188;2023-08-12T00:40:42;95751.13;;;16.45;100.00
8366;BME280;4220;42.502;24.188;2023-08-12T00:43:09;95754.59;;;16.28;100.00
8366;BME280;4220;42.502;24.188;2023-08-12T00:45:36;95751.28;;;16.21;100.00
8366;BME280;4220;42.502;24.188;2023-08-12T00:48:04;95748.53;;;16.33;100.00
8366;BME280;4220;42.502;24.188;2023-08-12T00:50:32;95718.16;;;16.11;100.00
8366;BME280;4220;42.502;24.188;2023-08-12T00:53:00;95746.31;;;16.13;100.00
8366;BME280;4220;42.502;24.188;2023-08-12T00:55:27;95751.22;;;16.33;100.00
8366;BME280;4220;42.502;24.188;2023-08-12T00:57:54;95734.16;;;16.39;100.00
8366;BME280;4220;42.502;24.188;2023-08-12T01:00:21;95733.06;;;16.52;100.00
8366;BME280;4220;42.502;24.188;2023-08-12T01:02:50;95737.13;;;16.71;100.00
8366;BME280;4220;42.502;24.188;2023-08-12T01:05:18;95734.41;;;16.82;100.00
8366;BME280;4220;42.502;24.188;2023-08-12T01:07:45;95736.91;;;16.89;100.00
8366;BME280;4220;42.502;24.188;2023-08-12T01:10:16;95742.59;;;16.92;100.00
8366;BME280;4220;42.502;24.188;2023-08-12T01:12:49;95732.59;;;16.71;100.00
8366;BME280;4220;42.502;24.188;2023-08-12T01:15:20;95739.09;;;16.59;100.00
8366;BME280;4220;42.502;24.188;2023-08-12T01:17:49;95733.28;;;16.33;100.00
8366;BME280;4220;42.502;24.188;2023-08-12T01:20:20;95737.19;;;16.14;100.00
8366;BME280;4220;42.502;24.188;2023-08-12T01:22:56;95737.88;;;16.21;100.00
8366;BME280;4220;42.502;24.188;2023-08-12T01:25:25;95728.94;;;16.16;100.00
8366;BME280;4220;42.502;24.188;2023-08-12T01:27:52;95727.47;;;16.08;100.00
8366;BME280;4220;42.502;24.188;2023-08-12T01:30:20;95734.63;;;16.19;100.00
8366;BME280;4220;42.502;24.188;2023-08-12T01:32:53;95734.31;;;16.32;100.00
8366;BME280;4220;42.502;24.188;2023-08-12T01:35:23;95730.69;;;16.39;100.00
8366;BME280;4220;42.502;24.188;2023-08-12T01:37:52;95730.28;;;16.47;100.00
8366;BME280;4220;42.502;24.188;2023-08-12T01:40:20;95727.72;;;16.52;100.00
8366;BME280;4220;42.502;24.188;2023-08-12T01:42:48;95732.41;;;16.45;100.00
8366;BME280;4220;42.502;24.188;2023-08-12T01:45:15;95701.88;;;16.29;100.00
8366;BME280;4220;42.502;24.188;2023-08-12T01:47:43;95699.13;;;16.24;100.00
8366;BME280;4220;42.502;24.188;2023-08-12T01:50:10;95725.72;;;16.30;100.00
8366;BME280;4220;42.502;24.188;2023-08-12T01:52:37;95736.06;;;16.39;100.00
8366;BME280;4220;42.502;24.188;2023-08-12T01:55:04;95737.53;;;16.46;100.00
8366;BME280;4220;42.502;24.188;2023-08-12T01:57:31;95741.66;;;16.54;100.00
8366;BME280;4220;42.502;24.188;2023-08-12T02:00:00;95741.53;;;16.60;100.00
8366;BME280;4220;42.502;24.188;2023-08-12T02:02:27;95743.41;;;16.60;100.00
8366;BME280;4220;42.502;24.188;2023-08-12T02:04:54;95744.53;;;16.64;100.00
8366;BME280;4220;42.502;24.188;2023-08-12T02:07:21;95744.44;;;16.59;100.00
8366;BME280;4220;42.502;24.188;2023-08-12T02:09:47;95731.09;;;16.47;100.00
8366;BME280;4220;42.502;24.188;2023-08-12T02:12:14;95745.31;;;16.48;100.00
8366;BME280;4220;42.502;24.188;2023-08-12T02:14:41;95737.75;;;16.45;100.00
8366;BME280;4220;42.502;24.188;2023-08-12T02:17:10;95737.59;;;16.51;100.00
8366;BME280;4220;42.502;24.188;2023-08-12T02:19:36;95734.72;;;16.53;100.00
8366;BME280;4220;42.502;24.188;2023-08-12T02:22:04;95733.69;;;16.42;100.00
8366;BME280;4220;42.502;24.188;2023-08-12T02:24:31;95734.16;;;16.39;100.00
8366;BME280;4220;42.502;24.188;2023-08-12T02:26:58;95733.91;;;16.24;100.00
8366;BME280;4220;42.502;24.188;2023-08-12T02:29:24;95734.38;;;16.04;100.00
8366;BME280;4220;42.502;24.188;2023-08-12T02:31:51;95736.97;;;15.88;100.00
8366;BME280;4220;42.502;24.188;2023-08-12T02:34:19;95699.63;;;15.53;100.00
8366;BME280;4220;42.502;24.188;2023-08-12T02:36:46;95749.59;;;15.64;100.00
8366;BME280;4220;42.502;24.188;2023-08-12T02:39:13;95733.91;;;15.67;100.00
8366;BME280;4220;42.502;24.188;2023-08-12T02:41:40;95747.59;;;15.71;100.00
8366;BME280;4220;42.502;24.188;2023-08-12T02:44:07;95745.75;;;15.72;100.00
8366;BME280;4220;42.502;24.188;2023-08-12T02:46:34;95748.84;;;15.80;100.00
8366;BME280;4220;42.502;24.188;2023-08-12T02:49:00;95746.78;;;15.82;100.00
8366;BME280;4220;42.502;24.188;2023-08-12T02:51:28;95756.63;;;15.93;100.00
8366;BME280;4220;42.502;24.188;2023-08-12T02:53:55;95759.28;;;15.93;100.00
8366;BME280;4220;42.502;24.188;2023-08-12T02:56:22;95757.16;;;15.67;100.00
8366;BME280;4220;42.502;24.188;2023-08-12T02:58:49;95759.75;;;15.62;100.00
8366;BME280;4220;42.502;24.188;2023-08-12T03:01:16;95756.97;;;15.57;100.00
8366;BME280;4220;42.502;24.188;2023-08-12T03:03:43;95756.03;;;15.40;100.00
8366;BME280;4220;42.502;24.188;2023-08-12T03:06:10;95748.28;;;15.15;100.00
8366;BME280;4220;42.502;24.188;2023-08-12T03:08:38;95720.97;;;14.78;100.00
8366;BME280;4220;42.502;24.188;2023-08-12T03:11:05;95746.53;;;14.86;100.00
8366;BME280;4220;42.502;24.188;2023-08-12T03:13:32;95750.03;;;14.86;100.00
8366;BME280;4220;42.502;24.188;2023-08-12T03:15:58;95763.00;;;14.94;100.00
8366;BME280;4220;42.502;24.188;2023-08-12T03:18:25;95762.44;;;15.04;100.00
8366;BME280;4220;42.502;24.188;2023-08-12T03:20:52;95759.16;;;15.14;100.00
8366;BME280;4220;42.502;24.188;2023-08-12T03:23:19;95756.97;;;14.99;100.00
8366;BME280;4220;42.502;24.188;2023-08-12T03:25:48;95759.88;;;15.09;100.00
8366;BME280;4220;42.502;24.188;2023-08-12T03:28:15;95764.50;;;15.14;100.00
8366;BME280;4220;42.502;24.188;2023-08-12T03:30:42;95757.00;;;15.11;100.00
8366;BME280;4220;42.502;24.188;2023-08-12T03:33:09;95750.25;;;15.08;100.00
8366;BME280;4220;42.502;24.188;2023-08-12T03:35:36;95763.13;;;15.23;100.00
8366;BME280;4220;42.502;24.188;2023-08-12T03:38:02;95761.38;;;15.40;100.00
8366;BME280;4220;42.502;24.188;2023-08-12T03:40:29;95769.97;;;15.42;100.00
8366;BME280;4220;42.502;24.188;2023-08-12T03:42:57;95763.72;;;15.48;100.00
8366;BME280;4220;42.502;24.188;2023-08-12T03:45:25;95763.47;;;15.49;100.00
8366;BME280;4220;42.502;24.188;2023-08-12T03:47:51;95768.22;;;15.59;100.00
8366;BME280;4220;42.502;24.188;2023-08-12T03:50:18;95760.91;;;15.43;100.00
8366;BME280;4220;42.502;24.188;2023-08-12T03:52:45;95769.06;;;15.48;100.00
8366;BME280;4220;42.502;24.188;2023-08-12T03:55:12;95784.84;;;15.61;100.00
8366;BME280;4220;42.502;24.188;2023-08-12T03:57:39;95779.16;;;15.46;100.00
8366;BME280;4220;42.502;24.188;2023-08-12T04:00:08;95777.19;;;15.06;100.00
8366;BME280;4220;42.502;24.188;2023-08-12T04:02:36;95777.53;;;15.10;100.00
8366;BME280;4220;42.502;24.188;2023-08-12T04:05:03;95779.06;;;15.18;100.00
8366;BME280;4220;42.502;24.188;2023-08-12T04:07:31;95767.09;;;15.20;100.00
8366;BME280;4220;42.502;24.188;2023-08-12T04:09:58;95766.47;;;15.41;100.00
8366;BME280;4220;42.502;24.188;2023-08-12T04:12:25;95785.53;;;15.56;100.00
8366;BME280;4220;42.502;24.188;2023-08-12T04:14:52;95780.16;;;15.68;100.00
8366;BME280;4220;42.502;24.188;2023-08-12T04:17:20;95787.69;;;15.83;100.00
8366;BME280;4220;42.502;24.188;2023-08-12T04:19:47;95783.38;;;15.93;100.00
8366;BME280;4220;42.502;24.188;2023-08-12T04:22:17;95785.09;;;15.99;100.00
8366;BME280;4220;42.502;24.188;2023-08-12T04:24:44;95778.84;;;15.94;100.00
8366;BME280;4220;42.502;24.188;2023-08-12T04:27:11;95779.25;;;16.02;100.00
8366;BME280;4220;42.502;24.188;2023-08-12T04:29:37;95794.94;;;16.10;100.00
8366;BME280;4220;42.502;24.188;2023-08-12T04:32:05;95765.69;;;15.92;100.00
8366;BME280;4220;42.502;24.188;2023-08-12T04:34:33;95785.28;;;16.09;100.00
8366;BME280;4220;42.502;24.188;2023-08-12T04:37:00;95788.91;;;16.03;100.00
8366;BME280;4220;42.502;24.188;2023-08-12T04:39:28;95787.94;;;16.09;100.00
8366;BME280;4220;42.502;24.188;2023-08-12T04:41:54;95784.13;;;16.05;100.00
8366;BME280;4220;42.502;24.188;2023-08-12T04:44:21;95794.63;;;16.07;100.00
8366;BME280;4220;42.502;24.188;2023-08-12T04:46:48;95781.56;;;16.10;100.00
8366;BME280;4220;42.502;24.188;2023-08-12T04:49:15;95782.00;;;16.19;100.00
8366;BME280;4220;42.502;24.188;2023-08-12T04:51:44;95788.69;;;16.33;100.00
8366;BME280;4220;42.502;24.188;2023-08-12T04:54:10;95782.03;;;16.35;100.00
8366;BME280;4220;42.502;24.188;2023-08-12T04:56:38;95790.13;;;16.24;100.00
8366;BME280;4220;42.502;24.188;2023-08-12T04:59:04;95788.19;;;16.08;100.00
8366;BME280;4220;42.502;24.188;2023-08-12T05:01:31;95784.22;;;16.10;100.00
8366;BME280;4220;42.502;24.188;2023-08-12T05:03:58;95783.66;;;16.36;100.00
8366;BME280;4220;42.502;24.188;2023-08-12T05:06:25;95786.97;;;16.55;100.00
8366;BME280;4220;42.502;24.188;2023-08-12T05:08:53;95784.22;;;16.67;100.00
8366;BME280;4220;42.502;24.188;2023-08-12T05:11:20;95783.56;;;16.76;100.00
8366;BME280;4220;42.502;24.188;2023-08-12T05:13:47;95782.44;;;16.89;100.00
8366;BME280;4220;42.502;24.188;2023-08-12T05:16:14;95778.22;;;16.93;100.00
8366;BME280;4220;42.502;24.188;2023-08-12T05:18:40;95788.88;;;17.05;100.00
8366;BME280;4220;42.502;24.188;2023-08-12T05:21:07;95790.22;;;17.24;100.00
8366;BME280;4220;42.502;24.188;2023-08-12T05:23:34;95779.66;;;17.34;100.00
8366;BME280;4220;42.502;24.188;2023-08-12T05:26:02;95785.91;;;17.56;100.00
8366;BME280;4220;42.502;24.188;2023-08-12T05:28:29;95786.91;;;17.72;100.00
8366;BME280;4220;42.502;24.188;2023-08-12T05:30:56;95784.41;;;17.87;100.00
8366;BME280;4220;42.502;24.188;2023-08-12T05:33:23;95782.47;;;18.04;100.00
8366;BME280;4220;42.502;24.188;2023-08-12T05:35:50;95763.94;;;18.02;100.00
8366;BME280;4220;42.502;24.188;2023-08-12T05:38:17;95783.25;;;18.26;100.00
8366;BME280;4220;42.502;24.188;2023-08-12T05:40:43;95781.94;;;18.50;100.00
8366;BME280;4220;42.502;24.188;2023-08-12T05:43:12;95794.47;;;18.66;100.00
8366;BME280;4220;42.502;24.188;2023-08-12T05:45:39;95783.31;;;18.79;100.00
8366;BME280;4220;42.502;24.188;2023-08-12T05:48:06;95773.16;;;18.86;100.00
8366;BME280;4220;42.502;24.188;2023-08-12T05:50:33;95777.31;;;19.04;100.00
8366;BME280;4220;42.502;24.188;2023-08-12T05:52:59;95767.44;;;19.15;100.00
8366;BME280;4220;42.502;24.188;2023-08-12T05:55:26;95763.22;;;19.24;100.00
8366;BME280;4220;42.502;24.188;2023-08-12T05:57:53;95776.28;;;19.47;99.45
8366;BME280;4220;42.502;24.188;2023-08-12T06:00:21;95777.44;;;19.61;98.19
8366;BME280;4220;42.502;24.188;2023-08-12T06:02:48;95771.06;;;19.72;97.52
8366;BME280;4220;42.502;24.188;2023-08-12T06:05:15;95770.56;;;19.85;96.46
8366;BME280;4220;42.502;24.188;2023-08-12T06:07:42;95771.19;;;19.97;95.54
8366;BME280;4220;42.502;24.188;2023-08-12T06:10:09;95753.97;;;20.03;94.61
8366;BME280;4220;42.502;24.188;2023-08-12T06:12:36;95765.22;;;19.95;96.74
8366;BME280;4220;42.502;24.188;2023-08-12T06:15:03;95759.63;;;20.02;96.92
8366;BME280;4220;42.502;24.188;2023-08-12T06:17:32;95757.75;;;20.17;96.57
8366;BME280;4220;42.502;24.188;2023-08-12T06:19:58;95756.19;;;20.21;95.91
8366;BME280;4220;42.502;24.188;2023-08-12T06:22:25;95752.44;;;20.23;95.70
8366;BME280;4220;42.502;24.188;2023-08-12T06:24:52;95751.13;;;20.40;95.61
8366;BME280;4220;42.502;24.188;2023-08-12T06:27:18;95755.75;;;20.65;94.78
8366;BME280;4220;42.502;24.188;2023-08-12T06:29:46;95750.38;;;20.80;94.48
8366;BME280;4220;42.502;24.188;2023-08-12T06:32:13;95747.69;;;20.90;94.23
8366;BME280;4220;42.502;24.188;2023-08-12T06:34:41;95738.53;;;21.06;93.63
8366;BME280;4220;42.502;24.188;2023-08-12T06:37:08;95754.19;;;21.14;89.58
8366;BME280;4220;42.502;24.188;2023-08-12T06:39:35;95750.66;;;21.24;89.63
8366;BME280;4220;42.502;24.188;2023-08-12T06:42:02;95747.66;;;21.30;85.18
8366;BME280;4220;42.502;24.188;2023-08-12T06:44:29;95757.38;;;21.41;80.86
8366;BME280;4220;42.502;24.188;2023-08-12T06:46:56;95761.66;;;21.52;79.25
8366;BME280;4220;42.502;24.188;2023-08-12T06:49:23;95750.59;;;21.59;80.65
8366;BME280;4220;42.502;24.188;2023-08-12T06:51:51;95755.13;;;21.74;78.54
8366;BME280;4220;42.502;24.188;2023-08-12T06:54:18;95754.56;;;21.87;79.71
8366;BME280;4220;42.502;24.188;2023-08-12T06:56:48;95745.88;;;22.00;77.85
8366;BME280;4220;42.502;24.188;2023-08-12T06:59:15;95726.47;;;21.93;78.26
8366;BME280;4220;42.502;24.188;2023-08-12T07:01:42;95749.31;;;22.21;77.45
8366;BME280;4220;42.502;24.188;2023-08-12T07:04:09;95744.13;;;22.24;77.10
8366;BME280;4220;42.502;24.188;2023-08-12T07:06:36;95754.88;;;22.39;76.84
8366;BME280;4220;42.502;24.188;2023-08-12T07:09:04;95758.84;;;22.52;73.26
8366;BME280;4220;42.502;24.188;2023-08-12T07:11:31;95758.31;;;22.55;76.13
8366;BME280;4220;42.502;24.188;2023-08-12T07:13:59;95750.72;;;22.57;76.39
8366;BME280;4220;42.502;24.188;2023-08-12T07:16:25;95752.06;;;22.59;75.31
8366;BME280;4220;42.502;24.188;2023-08-12T07:18:52;95751.19;;;22.69;75.26
8366;BME280;4220;42.502;24.188;2023-08-12T07:21:19;95750.56;;;22.82;74.79
8366;BME280;4220;42.502;24.188;2023-08-12T07:23:46;95750.72;;;22.96;73.65
8366;BME280;4220;42.502;24.188;2023-08-12T07:26:14;95716.75;;;22.85;72.99
8366;BME280;4220;42.502;24.188;2023-08-12T07:28:41;95751.13;;;23.13;72.24
8366;BME280;4220;42.502;24.188;2023-08-12T07:31:08;95715.84;;;22.94;70.56
8366;BME280;4220;42.502;24.188;2023-08-12T07:33:35;95752.41;;;23.20;69.26
8366;BME280;4220;42.502;24.188;2023-08-12T07:36:05;95666.22;;;22.80;67.30
8366;BME280;4220;42.502;24.188;2023-08-12T07:38:32;95745.69;;;23.47;67.27
8366;BME280;4220;42.502;24.188;2023-08-12T07:41:00;95738.56;;;23.56;67.21
8366;BME280;4220;42.502;24.188;2023-08-12T07:43:28;95743.59;;;23.67;67.98
8366;BME280;4220;42.502;24.188;2023-08-12T07:45:55;95734.94;;;23.65;67.33
8366;BME280;4220;42.502;24.188;2023-08-12T07:48:22;95678.94;;;23.37;66.77
8366;BME280;4220;42.502;24.188;2023-08-12T07:50:55;95738.38;;;23.76;67.23
8366;BME280;4220;42.502;24.188;2023-08-12T07:53:22;95730.91;;;23.86;65.70
8366;BME280;4220;42.502;24.188;2023-08-12T07:55:48;95737.53;;;23.99;65.34
8366;BME280;4220;42.502;24.188;2023-08-12T07:58:15;95742.69;;;24.00;65.35
8366;BME280;4220;42.502;24.188;2023-08-12T08:00:44;95736.16;;;24.01;65.26
8366;BME280;4220;42.502;24.188;2023-08-12T08:03:10;95740.47;;;24.02;63.92
8366;BME280;4220;42.502;24.188;2023-08-12T08:05:40;95729.91;;;24.01;64.10
8366;BME280;4220;42.502;24.188;2023-08-12T08:08:06;95742.59;;;24.05;64.05
8366;BME280;4220;42.502;24.188;2023-08-12T08:10:33;95740.59;;;24.16;64.40
8366;BME280;4220;42.502;24.188;2023-08-12T08:13:00;95728.88;;;24.21;63.75
8366;BME280;4220;42.502;24.188;2023-08-12T08:15:27;95736.91;;;24.49;63.01
8366;BME280;4220;42.502;24.188;2023-08-12T08:17:55;95733.88;;;24.51;62.64
8366;BME280;4220;42.502;24.188;2023-08-12T08:20:22;95714.31;;;24.35;63.12
8366;BME280;4220;42.502;24.188;2023-08-12T08:22:49;95738.16;;;24.57;63.24
8366;BME280;4220;42.502;24.188;2023-08-12T08:25:17;95736.22;;;24.76;63.05
8366;BME280;4220;42.502;24.188;2023-08-12T08:27:43;95742.97;;;24.97;62.18
8366;BME280;4220;42.502;24.188;2023-08-12T08:30:11;95736.63;;;25.20;62.29
8366;BME280;4220;42.502;24.188;2023-08-12T08:32:38;95735.47;;;25.40;60.76
8366;BME280;4220;42.502;24.188;2023-08-12T08:35:07;95737.94;;;25.55;61.07
8366;BME280;4220;42.502;24.188;2023-08-12T08:37:34;95743.88;;;25.71;59.08
8366;BME280;4220;42.502;24.188;2023-08-12T08:40:00;95740.78;;;25.91;58.49
8366;BME280;4220;42.502;24.188;2023-08-12T08:42:28;95731.66;;;26.14;58.08
8366;BME280;4220;42.502;24.188;2023-08-12T08:44:59;95723.41;;;26.41;57.62
8366;BME280;4220;42.502;24.188;2023-08-12T08:47:27;95731.03;;;26.67;57.02
8366;BME280;4220;42.502;24.188;2023-08-12T08:49:55;95733.00;;;26.88;56.10
8366;BME280;4220;42.502;24.188;2023-08-12T08:52:24;95730.72;;;26.68;55.75
8366;BME280;4220;42.502;24.188;2023-08-12T08:54:51;95740.66;;;26.37;55.40
8366;BME280;4220;42.502;24.188;2023-08-12T08:57:18;95733.03;;;26.25;56.83
8366;BME280;4220;42.502;24.188;2023-08-12T08:59:46;95721.66;;;26.23;55.08
8366;BME280;4220;42.502;24.188;2023-08-12T09:02:16;95712.09;;;26.12;54.25
8366;BME280;4220;42.502;24.188;2023-08-12T09:04:44;95727.75;;;26.56;54.14
8366;BME280;4220;42.502;24.188;2023-08-12T09:07:11;95719.34;;;27.02;52.05
8366;BME280;4220;42.502;24.188;2023-08-12T09:09:44;95695.53;;;27.07;51.42
8366;BME280;4220;42.502;24.188;2023-08-12T09:12:13;95723.50;;;27.30;50.77
8366;BME280;4220;42.502;24.188;2023-08-12T09:14:41;95721.97;;;27.38;50.83
8366;BME280;4220;42.502;24.188;2023-08-12T09:17:08;95703.47;;;27.26;50.90
8366;BME280;4220;42.502;24.188;2023-08-12T09:19:35;95718.25;;;27.34;51.18
8366;BME280;4220;42.502;24.188;2023-08-12T09:22:03;95711.72;;;27.35;51.08
8366;BME280;4220;42.502;24.188;2023-08-12T09:24:30;95719.19;;;27.51;51.29
8366;BME280;4220;42.502;24.188;2023-08-12T09:26:58;95705.38;;;27.48;48.79
8366;BME280;4220;42.502;24.188;2023-08-12T09:29:29;95712.34;;;27.62;48.05
8366;BME280;4220;42.502;24.188;2023-08-12T09:32:05;95710.97;;;27.82;48.19
8366;BME280;4220;42.502;24.188;2023-08-12T09:34:33;95706.53;;;27.95;47.99
8366;BME280;4220;42.502;24.188;2023-08-12T09:36:59;95711.78;;;28.22;47.32
8366;BME280;4220;42.502;24.188;2023-08-12T09:39:28;95710.56;;;28.45;46.61
8366;BME280;4220;42.502;24.188;2023-08-12T09:41:55;95709.94;;;28.65;45.49
8366;BME280;4220;42.502;24.188;2023-08-12T09:44:23;95707.38;;;28.94;45.83
8366;BME280;4220;42.502;24.188;2023-08-12T09:46:56;95705.13;;;29.13;44.85
8366;BME280;4220;42.502;24.188;2023-08-12T09:49:24;95704.59;;;29.46;44.18
8366;BME280;4220;42.502;24.188;2023-08-12T09:51:51;95700.84;;;29.59;43.63
8366;BME280;4220;42.502;24.188;2023-08-12T09:54:18;95710.38;;;29.44;44.23
8366;BME280;4220;42.502;24.188;2023-08-12T09:56:48;95661.47;;;28.79;44.86
8366;BME280;4220;42.502;24.188;2023-08-12T09:59:18;95697.13;;;28.74;45.05
8366;BME280;4220;42.502;24.188;2023-08-12T10:01:47;95706.44;;;28.65;45.09
8366;BME280;4220;42.502;24.188;2023-08-12T10:04:17;95698.34;;;28.51;45.31
8366;BME280;4220;42.502;24.188;2023-08-12T10:06:44;95698.66;;;28.41;45.66
8366;BME280;4220;42.502;24.188;2023-08-12T10:09:15;95694.34;;;28.40;46.26
8366;BME280;4220;42.502;24.188;2023-08-12T10:11:42;95696.09;;;28.44;45.69
8366;BME280;4220;42.502;24.188;2023-08-12T10:14:10;95694.22;;;28.62;45.42
8366;BME280;4220;42.502;24.188;2023-08-12T10:16:37;95699.19;;;28.69;45.70
8366;BME280;4220;42.502;24.188;2023-08-12T10:19:06;95693.56;;;28.74;45.26
8366;BME280;4220;42.502;24.188;2023-08-12T10:21:34;95678.16;;;28.69;45.13
8366;BME280;4220;42.502;24.188;2023-08-12T10:24:02;95682.31;;;28.49;44.90
8366;BME280;4220;42.502;24.188;2023-08-12T10:26:30;95686.47;;;28.47;44.43
8366;BME280;4220;42.502;24.188;2023-08-12T10:28:57;95688.22;;;28.34;44.96
8366;BME280;4220;42.502;24.188;2023-08-12T10:31:24;95676.16;;;28.27;46.37
8366;BME280;4220;42.502;24.188;2023-08-12T10:33:53;95682.41;;;28.19;46.25
8366;BME280;4220;42.502;24.188;2023-08-12T10:36:22;95684.84;;;28.29;46.11
8366;BME280;4220;42.502;24.188;2023-08-12T10:38:49;95681.81;;;28.39;45.63
8366;BME280;4220;42.502;24.188;2023-08-12T10:41:17;95682.28;;;28.58;45.12
8366;BME280;4220;42.502;24.188;2023-08-12T10:43:55;95683.31;;;28.79;44.56
8366;BME280;4220;42.502;24.188;2023-08-12T10:48:57;95680.06;;;28.60;45.31
8366;BME280;4220;42.502;24.188;2023-08-12T10:51:44;95682.19;;;28.72;45.06
8366;BME280;4220;42.502;24.188;2023-08-12T10:54:16;95671.25;;;28.89;44.05
8366;BME280;4220;42.502;24.188;2023-08-12T10:57:05;95676.13;;;29.47;43.82
8366;BME280;4220;42.502;24.188;2023-08-12T10:59:57;95668.66;;;30.31;41.81
8366;BME280;4220;42.502;24.188;2023-08-12T11:02:27;95632.97;;;29.99;41.24
8366;BME280;4220;42.502;24.188;2023-08-12T11:04:56;95563.03;;;29.31;41.54
8366;BME280;4220;42.502;24.188;2023-08-12T11:07:32;95652.22;;;29.35;41.75
8366;BME280;4220;42.502;24.188;2023-08-12T11:10:04;95669.44;;;29.19;43.04
8366;BME280;4220;42.502;24.188;2023-08-12T11:12:33;95660.47;;;29.01;42.77
8366;BME280;4220;42.502;24.188;2023-08-12T11:15:01;95648.09;;;29.03;43.67
8366;BME280;4220;42.502;24.188;2023-08-12T11:17:32;95603.25;;;29.04;41.75
8366;BME280;4220;42.502;24.188;2023-08-12T11:20:00;95643.38;;;29.38;42.42
8366;BME280;4220;42.502;24.188;2023-08-12T11:22:31;95647.56;;;29.36;42.24
8366;BME280;4220;42.502;24.188;2023-08-12T11:24:58;95655.81;;;29.56;41.56
8366;BME280;4220;42.502;24.188;2023-08-12T11:27:26;95654.41;;;29.50;41.83
8366;BME280;4220;42.502;24.188;2023-08-12T11:29:53;95655.25;;;29.42;42.52
8366;BME280;4220;42.502;24.188;2023-08-12T11:32:20;95651.22;;;29.40;43.08
8366;BME280;4220;42.502;24.188;2023-08-12T11:34:47;95648.31;;;29.45;42.92
8366;BME280;4220;42.502;24.188;2023-08-12T11:37:14;95653.31;;;29.43;42.65
8366;BME280;4220;42.502;24.188;2023-08-12T11:39:42;95641.06;;;29.49;42.34
8366;BME280;4220;42.502;24.188;2023-08-12T11:42:09;95649.25;;;29.57;43.10
8366;BME280;4220;42.502;24.188;2023-08-12T11:44:36;95650.00;;;29.66;44.22
8366;BME280;4220;42.502;24.188;2023-08-12T11:47:03;95640.63;;;29.76;43.57
8366;BME280;4220;42.502;24.188;2023-08-12T11:49:29;95642.97;;;29.95;43.50
8366;BME280;4220;42.502;24.188;2023-08-12T11:51:56;95651.09;;;29.83;44.16
8366;BME280;4220;42.502;24.188;2023-08-12T11:54:24;95645.50;;;29.70;43.46
8366;BME280;4220;42.502;24.188;2023-08-12T11:56:52;95649.53;;;29.64;43.90
8366;BME280;4220;42.502;24.188;2023-08-12T11:59:21;95643.06;;;29.69;43.70
8366;BME280;4220;42.502;24.188;2023-08-12T12:01:49;95641.16;;;29.69;43.65
8366;BME280;4220;42.502;24.188;2023-08-12T12:04:16;95634.31;;;29.46;44.47
8366;BME280;4220;42.502;24.188;2023-08-12T12:06:46;95641.28;;;29.35;44.72
8366;BME280;4220;42.502;24.188;2023-08-12T12:09:13;95634.19;;;29.43;44.97
8366;BME280;4220;42.502;24.188;2023-08-12T12:11:41;95637.50;;;29.57;44.92
8366;BME280;4220;42.502;24.188;2023-08-12T12:14:10;95644.75;;;29.53;44.85
8366;BME280;4220;42.502;24.188;2023-08-12T12:16:38;95635.53;;;29.66;44.66
8366;BME280;4220;42.502;24.188;2023-08-12T12:19:08;95630.38;;;29.73;44.79
8366;BME280;4220;42.502;24.188;2023-08-12T12:21:41;95617.16;;;29.75;44.43
8366;BME280;4220;42.502;24.188;2023-08-12T12:24:09;95639.25;;;29.99;44.31
8366;BME280;4220;42.502;24.188;2023-08-12T12:26:36;95570.06;;;29.69;43.38
8366;BME280;4220;42.502;24.188;2023-08-12T12:29:04;95625.28;;;30.21;43.44
8366;BME280;4220;42.502;24.188;2023-08-12T12:31:33;95631.47;;;30.30;43.39
8366;BME280;4220;42.502;24.188;2023-08-12T12:34:01;95628.03;;;30.42;42.27
8366;BME280;4220;42.502;24.188;2023-08-12T12:36:29;95635.44;;;30.62;41.76
8366;BME280;4220;42.502;24.188;2023-08-12T12:38:56;95622.53;;;30.83;41.53
8366;BME280;4220;42.502;24.188;2023-08-12T12:41:22;95626.75;;;30.81;40.54
8366;BME280;4220;42.502;24.188;2023-08-12T12:43:49;95614.94;;;30.48;39.97
8366;BME280;4220;42.502;24.188;2023-08-12T12:46:16;95621.78;;;30.33;41.27
8366;BME280;4220;42.502;24.188;2023-08-12T12:48:44;95621.97;;;29.78;40.93
8366;BME280;4220;42.502;24.188;2023-08-12T12:51:11;95610.94;;;29.20;43.53
8366;BME280;4220;42.502;24.188;2023-08-12T12:53:38;95614.63;;;29.15;42.83
8366;BME280;4220;42.502;24.188;2023-08-12T12:56:05;95618.31;;;29.28;42.83
8366;BME280;4220;42.502;24.188;2023-08-12T12:58:33;95607.84;;;29.30;43.29
8366;BME280;4220;42.502;24.188;2023-08-12T13:01:00;95591.19;;;29.05;43.33
8366;BME280;4220;42.502;24.188;2023-08-12T13:03:27;95607.25;;;29.07;44.14
8366;BME280;4220;42.502;24.188;2023-08-12T13:05:56;95606.88;;;29.34;43.82
8366;BME280;4220;42.502;24.188;2023-08-12T13:08:23;95594.84;;;29.27;43.73
8366;BME280;4220;42.502;24.188;2023-08-12T13:10:50;95583.94;;;29.09;44.12